Time;durP1;ratioP1;P1;durP2;ratioP2;P2;SDS_P1;SDS_P2;PMS_P1;PMS_P2;Temp;Humidity;BMP_temperature;BMP_pressure;BME280_temperature;BME280_humidity;BME280_pressure;Samples;Min_cycle;Max_cycle;Signal;HPM_P1;HPM_P2
2022/08/28 00:00:05;;;;;;;3.60;1.85;;;;;;;;;;5105793;28;20051;-60
2022/08/28 00:02:32;;;;;;;3.20;1.88;;;;;;;;;;5105852;28;20581;-60
2022/08/28 00:04:57;;;;;;;5.55;2.42;;;;;;;;;;5106085;28;20494;-60
2022/08/28 00:07:23;;;;;;;1.92;1.65;;;;;;;;;;5106049;28;20066;-60
2022/08/28 00:09:48;;;;;;;9.68;1.90;;;;;;;;;;5104684;28;20063;-60
2022/08/28 00:12:14;;;;;;;12.35;1.60;;;;;;;;;;5105111;28;20088;-59
2022/08/28 00:14:39;;;;;;;4.65;1.33;;;;;;;;;;5104848;28;20070;-60
2022/08/28 00:17:04;;;;;;;3.28;2.10;;;;;;;;;;5104062;28;20043;-60
2022/08/28 00:19:30;;;;;;;2.65;1.70;;;;;;;;;;5106763;28;20062;-59
2022/08/28 00:21:55;;;;;;;4.65;1.60;;;;;;;;;;5104830;28;20859;-60
2022/08/28 00:24:20;;;;;;;2.25;1.42;;;;;;;;;;5105813;28;20561;-59
2022/08/28 00:29:30;;;;;;;1.73;1.10;;;;;;;;;;5105670;28;20046;-59
2022/08/28 00:31:55;;;;;;;3.67;1.95;;;;;;;;;;5103594;28;20040;-59
2022/08/28 00:34:21;;;;;;;2.60;1.52;;;;;;;;;;5105970;28;20069;-60
2022/08/28 00:36:46;;;;;;;2.03;1.52;;;;;;;;;;5106521;28;20036;-59
2022/08/28 00:39:12;;;;;;;3.22;1.80;;;;;;;;;;5104731;28;20080;-59
2022/08/28 00:41:39;;;;;;;2.80;2.15;;;;;;;;;;5104751;28;20047;-59
2022/08/28 00:44:19;;;;;;;4.15;1.60;;;;;;;;;;5105967;28;20051;-61
2022/08/28 00:46:46;;;;;;;1.63;1.20;;;;;;;;;;5106577;28;20093;-59
2022/08/28 00:49:13;;;;;;;2.80;1.40;;;;;;;;;;5105302;28;20153;-59
2022/08/28 00:54:22;;;;;;;4.88;2.53;;;;;;;;;;5104081;28;20097;-59
2022/08/28 00:56:48;;;;;;;3.72;2.17;;;;;;;;;;5105290;28;20051;-59
2022/08/28 00:59:16;;;;;;;2.25;1.35;;;;;;;;;;5104061;28;20035;-59
2022/08/28 01:01:42;;;;;;;3.08;1.55;;;;;;;;;;5103689;28;20078;-59
2022/08/28 01:04:08;;;;;;;6.32;1.45;;;;;;;;;;5105803;28;20047;-59
2022/08/28 01:06:34;;;;;;;11.10;7.00;;;;;;;;;;5107784;28;20573;-59
2022/08/28 01:08:59;;;;;;;3.35;1.95;;;;;;;;;;5109100;28;20070;-59
2022/08/28 01:11:25;;;;;;;2.90;1.38;;;;;;;;;;5109812;28;20079;-59
2022/08/28 01:13:53;;;;;;;2.17;1.50;;;;;;;;;;5108556;28;20046;-58
2022/08/28 01:16:21;;;;;;;3.75;2.35;;;;;;;;;;5111146;28;20065;-58
2022/08/28 01:18:48;;;;;;;2.80;1.35;;;;;;;;;;5108953;28;20111;-59
2022/08/28 01:21:22;;;;;;;2.88;1.80;;;;;;;;;;5109515;28;20039;-59
2022/08/28 01:24:07;;;;;;;11.02;9.35;;;;;;;;;;5108970;28;20048;-59
2022/08/28 01:26:33;;;;;;;8.80;7.93;;;;;;;;;;5107681;28;20091;-58
2022/08/28 01:28:58;;;;;;;2.95;2.20;;;;;;;;;;5106446;28;20078;-58
2022/08/28 01:31:25;;;;;;;4.05;1.73;;;;;;;;;;5108790;28;20073;-58
2022/08/28 01:33:50;;;;;;;3.42;1.98;;;;;;;;;;5107634;28;20051;-59
2022/08/28 01:36:16;;;;;;;6.00;2.72;;;;;;;;;;5109922;28;20051;-59
2022/08/28 01:38:42;;;;;;;5.50;1.75;;;;;;;;;;5110290;28;20097;-59
2022/08/28 01:41:09;;;;;;;3.30;1.60;;;;;;;;;;5108594;28;20051;-59
2022/08/28 01:43:35;;;;;;;2.60;1.95;;;;;;;;;;5110075;28;20054;-59
2022/08/28 01:46:03;;;;;;;2.20;1.67;;;;;;;;;;5109733;28;20406;-59
2022/08/28 01:48:30;;;;;;;2.92;1.25;;;;;;;;;;5106130;28;20118;-59
2022/08/28 01:50:55;;;;;;;3.40;2.03;;;;;;;;;;5105777;28;20130;-59
2022/08/28 01:53:22;;;;;;;10.80;2.15;;;;;;;;;;5108402;28;20131;-59
2022/08/28 01:55:48;;;;;;;3.55;1.55;;;;;;;;;;5108612;28;20564;-59
2022/08/28 01:58:13;;;;;;;1.98;1.45;;;;;;;;;;5108769;28;20051;-59
2022/08/28 02:00:38;;;;;;;1.63;0.98;;;;;;;;;;5107508;28;20044;-59
2022/08/28 02:03:05;;;;;;;2.05;1.00;;;;;;;;;;5104707;28;20696;-59
2022/08/28 02:05:31;;;;;;;2.67;1.52;;;;;;;;;;5108405;28;20048;-58
2022/08/28 02:07:57;;;;;;;3.15;1.67;;;;;;;;;;5104874;28;20044;-59
2022/08/28 02:10:24;;;;;;;2.90;1.15;;;;;;;;;;5108313;28;20559;-59
2022/08/28 02:12:50;;;;;;;1.77;1.17;;;;;;;;;;5105986;28;20605;-59
2022/08/28 02:15:16;;;;;;;1.38;0.82;;;;;;;;;;5108627;28;20062;-59
2022/08/28 02:17:41;;;;;;;1.60;1.20;;;;;;;;;;5108495;28;20112;-59
2022/08/28 02:20:07;;;;;;;1.45;1.23;;;;;;;;;;5108307;28;20630;-60
2022/08/28 02:22:32;;;;;;;2.60;1.52;;;;;;;;;;5108791;28;20522;-60
2022/08/28 02:24:57;;;;;;;4.80;2.15;;;;;;;;;;5106725;28;20268;-60
2022/08/28 02:27:23;;;;;;;1.75;1.20;;;;;;;;;;5106725;28;20127;-60
2022/08/28 02:29:48;;;;;;;6.20;4.25;;;;;;;;;;5107433;28;20039;-60
2022/08/28 02:32:13;;;;;;;3.30;2.28;;;;;;;;;;5107912;28;20194;-60
2022/08/28 02:34:40;;;;;;;2.28;2.08;;;;;;;;;;5108329;28;20107;-59
2022/08/28 02:37:07;;;;;;;2.40;1.83;;;;;;;;;;5109237;28;20055;-60
2022/08/28 02:39:33;;;;;;;9.82;1.70;;;;;;;;;;5105676;28;20043;-60
2022/08/28 02:41:58;;;;;;;2.45;0.65;;;;;;;;;;5107469;28;20048;-59
2022/08/28 02:44:23;;;;;;;3.15;1.98;;;;;;;;;;5107011;28;20071;-59
2022/08/28 02:46:49;;;;;;;4.53;2.20;;;;;;;;;;5107173;28;20043;-59
2022/08/28 02:49:14;;;;;;;3.88;2.08;;;;;;;;;;5107030;28;20134;-59
2022/08/28 02:51:39;;;;;;;4.10;2.10;;;;;;;;;;5108055;28;20040;-60
2022/08/28 02:54:04;;;;;;;4.68;1.50;;;;;;;;;;5108261;28;20047;-60
2022/08/28 02:56:30;;;;;;;2.22;1.50;;;;;;;;;;5107913;28;20091;-60
2022/08/28 02:58:57;;;;;;;2.80;0.90;;;;;;;;;;5107917;28;20915;-61
2022/08/28 03:01:22;;;;;;;2.38;1.30;;;;;;;;;;5107678;28;20039;-60
2022/08/28 03:03:47;;;;;;;2.47;1.00;;;;;;;;;;5107853;28;20388;-59
2022/08/28 03:06:13;;;;;;;3.15;1.80;;;;;;;;;;5106925;28;20043;-59
2022/08/28 03:08:39;;;;;;;3.00;1.08;;;;;;;;;;5108046;28;20131;-61
2022/08/28 03:11:04;;;;;;;5.07;2.00;;;;;;;;;;5108012;28;20071;-59
2022/08/28 03:13:29;;;;;;;2.25;1.20;;;;;;;;;;5108736;28;20079;-59
2022/08/28 03:15:55;;;;;;;1.98;1.55;;;;;;;;;;5107874;28;20679;-59
2022/08/28 03:18:20;;;;;;;1.95;1.58;;;;;;;;;;5107448;28;20085;-59
2022/08/28 03:20:46;;;;;;;4.95;1.35;;;;;;;;;;5108725;28;20047;-59
2022/08/28 03:23:26;;;;;;;1.73;1.30;;;;;;;;;;5104725;28;20462;-60
2022/08/28 03:25:53;;;;;;;1.60;1.17;;;;;;;;;;5106983;28;20063;-60
2022/08/28 03:28:19;;;;;;;4.50;1.88;;;;;;;;;;5106406;28;20052;-59
2022/08/28 03:30:44;;;;;;;3.10;1.52;;;;;;;;;;5107461;28;20466;-59
2022/08/28 03:33:09;;;;;;;1.58;1.00;;;;;;;;;;5103877;28;20067;-60
2022/08/28 03:35:36;;;;;;;2.25;1.60;;;;;;;;;;5106035;28;20040;-59
2022/08/28 03:38:02;;;;;;;4.93;0.85;;;;;;;;;;5107556;28;20035;-60
2022/08/28 03:40:27;;;;;;;3.45;1.15;;;;;;;;;;5107310;28;20502;-60
2022/08/28 03:42:52;;;;;;;1.77;1.13;;;;;;;;;;5106562;28;20071;-60
2022/08/28 03:45:18;;;;;;;1.98;1.20;;;;;;;;;;5104461;28;20162;-60
2022/08/28 03:47:43;;;;;;;2.22;1.10;;;;;;;;;;5105935;28;20035;-60
2022/08/28 03:50:10;;;;;;;3.67;1.13;;;;;;;;;;5108052;28;20043;-60
2022/08/28 03:52:35;;;;;;;1.73;1.17;;;;;;;;;;5107667;28;20055;-60
2022/08/28 03:55:01;;;;;;;1.35;0.90;;;;;;;;;;5107470;28;20525;-60
2022/08/28 03:57:26;;;;;;;1.58;1.10;;;;;;;;;;5105905;28;20039;-60
2022/08/28 03:59:52;;;;;;;5.22;1.25;;;;;;;;;;5104930;28;20082;-59
2022/08/28 04:02:19;;;;;;;6.40;1.70;;;;;;;;;;5106572;28;20637;-58
2022/08/28 04:04:48;;;;;;;1.48;0.75;;;;;;;;;;5106444;28;20039;-59
2022/08/28 04:07:14;;;;;;;2.70;1.92;;;;;;;;;;5107173;28;20047;-60
2022/08/28 04:09:39;;;;;;;1.90;1.20;;;;;;;;;;5106560;28;20085;-60
2022/08/28 04:12:05;;;;;;;1.48;1.20;;;;;;;;;;5105446;28;20051;-59
2022/08/28 04:14:31;;;;;;;4.85;1.67;;;;;;;;;;5105979;28;20043;-60
2022/08/28 04:16:56;;;;;;;2.35;1.38;;;;;;;;;;5105993;28;20612;-59
2022/08/28 04:19:21;;;;;;;2.15;1.33;;;;;;;;;;5106539;28;20036;-60
2022/08/28 04:21:47;;;;;;;4.18;0.98;;;;;;;;;;5106520;28;20043;-59
2022/08/28 04:24:12;;;;;;;0.80;0.47;;;;;;;;;;5106963;28;20127;-59
2022/08/28 04:26:38;;;;;;;4.70;1.10;;;;;;;;;;5106292;28;20044;-58
2022/08/28 04:29:04;;;;;;;2.88;1.20;;;;;;;;;;5105994;28;20591;-60
2022/08/28 04:31:29;;;;;;;1.80;0.95;;;;;;;;;;5106261;28;20051;-59
2022/08/28 04:33:55;;;;;;;1.63;1.00;;;;;;;;;;5105072;28;20059;-59
2022/08/28 04:36:20;;;;;;;1.80;1.20;;;;;;;;;;5105153;28;20663;-60
2022/08/28 04:38:46;;;;;;;2.10;1.60;;;;;;;;;;5106469;28;20184;-59
2022/08/28 04:41:12;;;;;;;1.70;1.48;;;;;;;;;;5103160;28;20075;-59
2022/08/28 04:43:37;;;;;;;13.88;1.20;;;;;;;;;;5105339;28;20044;-59
2022/08/28 04:46:07;;;;;;;1.35;0.90;;;;;;;;;;5106310;28;20508;-60
2022/08/28 04:48:33;;;;;;;1.98;1.30;;;;;;;;;;5105768;28;20127;-60
2022/08/28 04:50:58;;;;;;;1.92;1.33;;;;;;;;;;5104341;28;20127;-60
2022/08/28 04:53:23;;;;;;;3.72;1.00;;;;;;;;;;5106064;28;20082;-60
2022/08/28 04:55:50;;;;;;;2.03;1.63;;;;;;;;;;5102025;28;20040;-60
2022/08/28 04:58:16;;;;;;;3.35;1.90;;;;;;;;;;5104574;28;20048;-60
2022/08/28 05:00:42;;;;;;;6.35;1.85;;;;;;;;;;5105697;28;20527;-59
2022/08/28 05:03:10;;;;;;;2.88;1.60;;;;;;;;;;5105754;28;20079;-60
2022/08/28 05:05:45;;;;;;;1.85;1.00;;;;;;;;;;5104896;28;20089;-59
2022/08/28 05:08:11;;;;;;;6.10;2.15;;;;;;;;;;5105272;28;20035;-60
2022/08/28 05:10:36;;;;;;;4.68;1.88;;;;;;;;;;5105385;28;20039;-60
2022/08/28 05:13:02;;;;;;;1.95;1.58;;;;;;;;;;5104127;28;20046;-60
2022/08/28 05:15:27;;;;;;;1.38;1.00;;;;;;;;;;5104625;28;20075;-60
2022/08/28 05:17:53;;;;;;;1.90;1.10;;;;;;;;;;5104224;28;20495;-60
2022/08/28 05:20:18;;;;;;;4.30;1.63;;;;;;;;;;5104783;28;20055;-60
2022/08/28 05:22:44;;;;;;;1.30;0.98;;;;;;;;;;5106014;28;20093;-60
2022/08/28 05:25:09;;;;;;;1.98;0.98;;;;;;;;;;5105203;28;20039;-59
2022/08/28 05:27:37;;;;;;;5.05;1.75;;;;;;;;;;5103454;28;20147;-59
2022/08/28 05:30:02;;;;;;;1.85;1.10;;;;;;;;;;5106167;28;20055;-59
2022/08/28 05:32:27;;;;;;;17.50;1.35;;;;;;;;;;5106158;28;20043;-60
2022/08/28 05:34:54;;;;;;;3.08;1.65;;;;;;;;;;5104406;28;20043;-59
2022/08/28 05:37:19;;;;;;;4.82;1.67;;;;;;;;;;5104795;28;20047;-60
2022/08/28 05:39:44;;;;;;;2.17;1.40;;;;;;;;;;5104248;28;20426;-59
2022/08/28 05:42:09;;;;;;;1.92;1.30;;;;;;;;;;5104801;28;20701;-59
2022/08/28 05:44:35;;;;;;;1.42;1.13;;;;;;;;;;5104931;28;20046;-60
2022/08/28 05:47:01;;;;;;;1.65;0.70;;;;;;;;;;5104533;28;20173;-60
2022/08/28 05:49:27;;;;;;;11.32;2.20;;;;;;;;;;5105385;28;20155;-60
2022/08/28 05:51:52;;;;;;;2.72;1.50;;;;;;;;;;5103805;28;20111;-59
2022/08/28 05:54:17;;;;;;;1.40;0.77;;;;;;;;;;5108577;28;20038;-59
2022/08/28 05:56:43;;;;;;;3.78;1.77;;;;;;;;;;5109485;28;20388;-60
2022/08/28 05:59:09;;;;;;;3.15;1.60;;;;;;;;;;5108827;28;20048;-60
2022/08/28 06:01:37;;;;;;;6.97;3.60;;;;;;;;;;5107903;28;20066;-59
2022/08/28 06:04:11;;;;;;;2.88;2.05;;;;;;;;;;5105676;28;20127;-59
2022/08/28 06:06:38;;;;;;;3.28;1.45;;;;;;;;;;5106097;28;20043;-59
2022/08/28 06:09:23;;;;;;;6.57;1.60;;;;;;;;;;5107127;28;20036;-60
2022/08/28 06:11:49;;;;;;;1.92;1.13;;;;;;;;;;5108871;28;20081;-60
2022/08/28 06:14:16;;;;;;;5.55;1.95;;;;;;;;;;5106076;28;20047;-60
2022/08/28 06:16:42;;;;;;;2.85;1.55;;;;;;;;;;5106714;28;20035;-60
2022/08/28 06:19:08;;;;;;;3.30;1.70;;;;;;;;;;5108347;28;20047;-59
2022/08/28 06:21:34;;;;;;;4.38;3.00;;;;;;;;;;5107476;28;20039;-60
2022/08/28 06:23:59;;;;;;;4.15;1.85;;;;;;;;;;5103846;28;20189;-60
2022/08/28 06:26:25;;;;;;;3.83;2.92;;;;;;;;;;5107722;28;20048;-59
2022/08/28 06:28:51;;;;;;;4.15;1.55;;;;;;;;;;5107983;28;20046;-58
2022/08/28 06:31:17;;;;;;;2.28;1.40;;;;;;;;;;5107061;28;20040;-58
2022/08/28 06:33:42;;;;;;;2.08;1.40;;;;;;;;;;5107063;28;20058;-56
2022/08/28 06:36:07;;;;;;;21.83;1.88;;;;;;;;;;5107561;28;20047;-61
2022/08/28 06:38:33;;;;;;;7.13;3.03;;;;;;;;;;5108520;28;20122;-60
2022/08/28 06:40:58;;;;;;;3.30;2.25;;;;;;;;;;5100542;28;20403;-60
2022/08/28 06:43:25;;;;;;;8.23;2.35;;;;;;;;;;5107265;28;20036;-60
2022/08/28 06:45:53;;;;;;;4.20;2.65;;;;;;;;;;5106931;28;20590;-61
2022/08/28 06:48:19;;;;;;;3.33;2.75;;;;;;;;;;5106685;28;20052;-61
2022/08/28 06:50:46;;;;;;;1.80;1.58;;;;;;;;;;5108162;28;20673;-60
2022/08/28 06:53:13;;;;;;;5.30;2.30;;;;;;;;;;5106935;28;20127;-61
2022/08/28 06:55:40;;;;;;;3.13;2.33;;;;;;;;;;5106324;28;20043;-60
2022/08/28 06:58:06;;;;;;;3.25;1.50;;;;;;;;;;5107476;28;20135;-62
2022/08/28 07:00:31;;;;;;;3.95;1.50;;;;;;;;;;5107474;28;20130;-61
2022/08/28 07:02:57;;;;;;;2.85;1.75;;;;;;;;;;5108001;28;20167;-61
2022/08/28 07:05:23;;;;;;;2.10;1.65;;;;;;;;;;5108036;28;20043;-61
2022/08/28 07:07:48;;;;;;;4.40;1.92;;;;;;;;;;5108124;28;20039;-62
2022/08/28 07:10:13;;;;;;;2.92;2.08;;;;;;;;;;5107299;28;20039;-62
2022/08/28 07:12:39;;;;;;;3.72;2.08;;;;;;;;;;5108105;28;20040;-62
2022/08/28 07:15:05;;;;;;;8.75;5.30;;;;;;;;;;5107619;28;20066;-62
2022/08/28 07:17:30;;;;;;;8.88;7.03;;;;;;;;;;5107850;28;20054;-62
2022/08/28 07:19:55;;;;;;;19.48;11.38;;;;;;;;;;5106910;28;20042;-61
2022/08/28 07:22:21;;;;;;;12.60;8.85;;;;;;;;;;5106886;28;20047;-62
2022/08/28 07:24:47;;;;;;;12.65;9.70;;;;;;;;;;5107818;28;20051;-62
2022/08/28 07:27:12;;;;;;;19.92;13.23;;;;;;;;;;5107037;28;20127;-62
2022/08/28 07:29:38;;;;;;;9.32;7.93;;;;;;;;;;5107902;28;20035;-61
2022/08/28 07:32:03;;;;;;;11.18;6.70;;;;;;;;;;5107376;28;20036;-62
2022/08/28 07:34:28;;;;;;;3.90;3.08;;;;;;;;;;5107947;28;20052;-59
2022/08/28 07:36:55;;;;;;;2.67;1.55;;;;;;;;;;5107926;28;20088;-59
2022/08/28 07:39:20;;;;;;;2.17;1.52;;;;;;;;;;5107695;28;20043;-59
2022/08/28 07:41:46;;;;;;;2.58;1.25;;;;;;;;;;5107685;28;20040;-59
2022/08/28 07:46:58;;;;;;;8.85;1.45;;;;;;;;;;5106446;28;20567;-59
2022/08/28 07:49:23;;;;;;;2.97;0.80;;;;;;;;;;5107829;28;20100;-59
2022/08/28 07:51:49;;;;;;;1.15;0.77;;;;;;;;;;5106239;28;20047;-59
2022/08/28 07:54:14;;;;;;;2.58;1.25;;;;;;;;;;5107488;28;20043;-58
2022/08/28 07:56:40;;;;;;;3.45;0.80;;;;;;;;;;5107222;28;20116;-60
2022/08/28 07:59:06;;;;;;;2.90;1.17;;;;;;;;;;5106274;28;20043;-60
2022/08/28 08:01:34;;;;;;;1.60;1.05;;;;;;;;;;5106163;28;20126;-60
2022/08/28 08:04:00;;;;;;;1.67;1.00;;;;;;;;;;5106059;28;20051;-59
2022/08/28 08:06:32;;;;;;;3.75;2.70;;;;;;;;;;5105029;28;20050;-59
2022/08/28 08:08:57;;;;;;;3.80;1.90;;;;;;;;;;5105649;28;20118;-60
2022/08/28 08:11:22;;;;;;;2.33;1.00;;;;;;;;;;5106915;28;20122;-60
2022/08/28 08:13:48;;;;;;;4.95;0.82;;;;;;;;;;5104684;28;20051;-59
2022/08/28 08:16:16;;;;;;;1.85;0.98;;;;;;;;;;5104911;28;20052;-60
2022/08/28 08:18:42;;;;;;;4.80;1.77;;;;;;;;;;5104909;28;20058;-59
2022/08/28 08:21:10;;;;;;;4.18;1.20;;;;;;;;;;5106013;28;20059;-60
2022/08/28 08:23:37;;;;;;;3.55;1.80;;;;;;;;;;5106225;28;20049;-59
2022/08/28 08:26:06;;;;;;;1.48;1.00;;;;;;;;;;5106655;28;20043;-60
2022/08/28 08:28:33;;;;;;;3.42;1.15;;;;;;;;;;5102508;28;20737;-59
2022/08/28 08:31:04;;;;;;;0.95;0.57;;;;;;;;;;5105383;28;20031;-60
2022/08/28 08:33:30;;;;;;;1.75;1.02;;;;;;;;;;5106157;28;20044;-59
2022/08/28 08:35:56;;;;;;;1.67;1.02;;;;;;;;;;5106515;28;20043;-59
2022/08/28 08:38:21;;;;;;;1.02;0.57;;;;;;;;;;5105390;28;20089;-60
2022/08/28 08:40:47;;;;;;;2.72;1.05;;;;;;;;;;5106805;28;20470;-60
2022/08/28 08:43:13;;;;;;;2.50;1.00;;;;;;;;;;5104148;28;20082;-60
2022/08/28 08:45:40;;;;;;;13.10;1.77;;;;;;;;;;5106410;28;20058;-61
2022/08/28 08:48:10;;;;;;;3.85;1.88;;;;;;;;;;5106426;28;20039;-61
2022/08/28 08:50:35;;;;;;;1.73;1.20;;;;;;;;;;5105676;28;20043;-60
2022/08/28 08:53:19;;;;;;;2.95;1.33;;;;;;;;;;5105925;28;20051;-61
2022/08/28 08:55:51;;;;;;;5.40;0.93;;;;;;;;;;5106185;28;20101;-61
2022/08/28 08:58:29;;;;;;;5.18;1.17;;;;;;;;;;5105957;28;20131;-61
2022/08/28 09:00:57;;;;;;;1.48;0.82;;;;;;;;;;5104692;28;20047;-61
2022/08/28 09:03:24;;;;;;;2.58;1.38;;;;;;;;;;5104276;28;20495;-60
2022/08/28 09:05:54;;;;;;;5.03;1.15;;;;;;;;;;5106191;28;20055;-61
2022/08/28 09:08:31;;;;;;;13.60;4.78;;;;;;;;;;5105047;28;20090;-61
2022/08/28 09:11:10;;;;;;;1.52;0.88;;;;;;;;;;5105757;28;20040;-60
2022/08/28 09:13:45;;;;;;;4.03;1.63;;;;;;;;;;5105947;28;20031;-61
2022/08/28 09:16:27;;;;;;;2.40;1.42;;;;;;;;;;5104804;28;20529;-61
2022/08/28 09:18:55;;;;;;;1.50;0.90;;;;;;;;;;5104311;28;20069;-61
2022/08/28 09:21:37;;;;;;;1.83;1.52;;;;;;;;;;5105132;28;20109;-60
2022/08/28 09:24:04;;;;;;;1.05;0.57;;;;;;;;;;5105852;28;20115;-61
2022/08/28 09:26:29;;;;;;;1.83;1.00;;;;;;;;;;5106600;28;20088;-61
2022/08/28 09:29:03;;;;;;;1.67;0.95;;;;;;;;;;5107803;28;20588;-61
2022/08/28 09:31:30;;;;;;;2.30;1.73;;;;;;;;;;5108331;28;20100;-61
2022/08/28 09:34:11;;;;;;;1.20;0.80;;;;;;;;;;5107896;28;20052;-60
2022/08/28 09:36:37;;;;;;;2.97;1.50;;;;;;;;;;5110357;28;20130;-61
2022/08/28 09:39:02;;;;;;;8.23;1.38;;;;;;;;;;5109177;28;20071;-61
2022/08/28 09:44:15;;;;;;;1.92;1.08;;;;;;;;;;5108942;28;21069;-60
2022/08/28 09:46:45;;;;;;;1.25;0.55;;;;;;;;;;5108643;28;20601;-61
2022/08/28 09:49:13;;;;;;;3.15;1.25;;;;;;;;;;5107507;28;20668;-61
2022/08/28 09:51:38;;;;;;;0.70;0.47;;;;;;;;;;5108482;28;20123;-61
2022/08/28 09:54:22;;;;;;;0.38;0.30;;;;;;;;;;5108162;27;20461;-61
2022/08/28 09:56:48;;;;;;;2.65;1.00;;;;;;;;;;5109304;28;20051;-61
2022/08/28 09:59:15;;;;;;;2.00;1.15;;;;;;;;;;5106290;28;20062;-61
2022/08/28 10:01:40;;;;;;;1.13;1.00;;;;;;;;;;5106783;28;20499;-61
2022/08/28 10:04:12;;;;;;;2.83;0.82;;;;;;;;;;5108782;28;20050;-61
2022/08/28 10:06:38;;;;;;;8.95;1.50;;;;;;;;;;5108881;28;20047;-61
2022/08/28 10:09:09;;;;;;;0.95;0.47;;;;;;;;;;5106794;28;20040;-61
2022/08/28 10:11:53;;;;;;;1.38;0.95;;;;;;;;;;5106598;28;20633;-60
2022/08/28 10:14:30;;;;;;;2.38;0.95;;;;;;;;;;5107750;27;20051;-60
2022/08/28 10:17:17;;;;;;;0.80;0.50;;;;;;;;;;5106382;28;20130;-61
2022/08/28 10:19:48;;;;;;;2.38;0.68;;;;;;;;;;5109034;28;20131;-61
2022/08/28 10:22:16;;;;;;;2.30;1.33;;;;;;;;;;5107721;28;20051;-60
2022/08/28 10:24:48;;;;;;;2.50;1.30;;;;;;;;;;5106379;28;20202;-61
2022/08/28 10:27:32;;;;;;;1.65;0.73;;;;;;;;;;5109050;28;20104;-61
2022/08/28 10:30:03;;;;;;;0.80;0.60;;;;;;;;;;5107410;28;20483;-61
2022/08/28 10:32:47;;;;;;;1.50;1.02;;;;;;;;;;5106589;28;20115;-61
2022/08/28 10:35:24;;;;;;;0.77;0.57;;;;;;;;;;5107080;28;20044;-61
2022/08/28 10:38:07;;;;;;;2.78;1.25;;;;;;;;;;5107896;28;20811;-61
2022/08/28 10:40:38;;;;;;;0.63;0.40;;;;;;;;;;5108311;28;20062;-61
2022/08/28 10:43:03;;;;;;;1.38;0.63;;;;;;;;;;5107100;28;20563;-61
2022/08/28 10:45:30;;;;;;;1.90;1.55;;;;;;;;;;5106736;28;20043;-61
2022/08/28 10:48:06;;;;;;;1.70;1.00;;;;;;;;;;5105916;28;20189;-61
2022/08/28 10:50:41;;;;;;;4.90;1.27;;;;;;;;;;5105739;28;20130;-61
2022/08/28 10:53:10;;;;;;;1.05;0.60;;;;;;;;;;5102447;28;20059;-61
2022/08/28 10:55:46;;;;;;;2.63;1.10;;;;;;;;;;5105658;28;20036;-61
2022/08/28 10:58:12;;;;;;;2.70;1.10;;;;;;;;;;5107290;28;20044;-61
2022/08/28 11:00:38;;;;;;;2.28;1.20;;;;;;;;;;5106776;28;20056;-60
2022/08/28 11:03:09;;;;;;;1.05;0.63;;;;;;;;;;5105996;28;20044;-60
2022/08/28 11:05:55;;;;;;;1.15;0.70;;;;;;;;;;5106926;28;20063;-60
2022/08/28 11:08:28;;;;;;;4.25;1.25;;;;;;;;;;5105489;28;20054;-61
2022/08/28 11:10:55;;;;;;;1.13;0.60;;;;;;;;;;5106883;28;20143;-61
2022/08/28 11:13:39;;;;;;;1.25;0.73;;;;;;;;;;5105795;28;20160;-63
2022/08/28 11:16:18;;;;;;;2.35;1.02;;;;;;;;;;5108038;27;20055;-63
2022/08/28 11:18:50;;;;;;;0.77;0.57;;;;;;;;;;5110405;27;20092;-62
2022/08/28 11:21:32;;;;;;;0.82;0.68;;;;;;;;;;5106815;27;20537;-62
2022/08/28 11:24:02;;;;;;;0.82;0.52;;;;;;;;;;5107154;27;20052;-63
2022/08/28 11:26:27;;;;;;;;;;;;;;;;;;5109725;27;20032;-62
2022/08/28 11:28:52;;;;;;;2.00;0.70;;;;;;;;;;5107459;28;19922;-63
2022/08/28 11:31:18;;;;;;;0.80;0.70;;;;;;;;;;5104656;28;20089;-63
2022/08/28 11:33:45;;;;;;;0.75;0.43;;;;;;;;;;5105420;28;20601;-63
2022/08/28 11:36:31;;;;;;;8.45;2.28;;;;;;;;;;5106201;28;20072;-63
2022/08/28 11:38:56;;;;;;;2.78;1.33;;;;;;;;;;5088893;28;20128;-62
2022/08/28 11:41:23;;;;;;;8.48;1.02;;;;;;;;;;5106315;28;20047;-62
2022/08/28 11:44:08;;;;;;;3.75;1.48;;;;;;;;;;5100897;28;20035;-63
2022/08/28 11:46:38;;;;;;;7.95;4.20;;;;;;;;;;5101374;28;20123;-62
2022/08/28 11:49:26;;;;;;;13.13;3.38;;;;;;;;;;5104763;28;20044;-62
2022/08/28 11:51:57;;;;;;;7.80;2.85;;;;;;;;;;5106511;28;20036;-63
2022/08/28 11:54:43;;;;;;;4.70;2.10;;;;;;;;;;5105306;28;20048;-62
2022/08/28 11:57:17;;;;;;;1.27;0.82;;;;;;;;;;5050714;28;20493;-62
2022/08/28 11:59:58;;;;;;;2.30;1.27;;;;;;;;;;5103500;28;20054;-62
2022/08/28 12:02:35;;;;;;;1.33;0.80;;;;;;;;;;5100935;28;20047;-62
2022/08/28 12:05:03;;;;;;;0.70;0.57;;;;;;;;;;5104497;28;20048;-63
2022/08/28 12:07:35;;;;;;;2.63;1.42;;;;;;;;;;5106230;28;20039;-63
2022/08/28 12:10:01;;;;;;;2.45;1.15;;;;;;;;;;5105904;28;20120;-63
2022/08/28 12:12:44;;;;;;;1.10;0.60;;;;;;;;;;5105476;28;20082;-62
2022/08/28 12:15:30;;;;;;;1.48;0.60;;;;;;;;;;5104387;28;20050;-62
2022/08/28 12:17:59;;;;;;;0.70;0.50;;;;;;;;;;5103712;28;20086;-63
2022/08/28 12:20:31;;;;;;;0.93;0.67;;;;;;;;;;5103952;28;20039;-62
2022/08/28 12:22:58;;;;;;;1.15;0.68;;;;;;;;;;5102722;28;20114;-63
2022/08/28 12:25:42;;;;;;;2.35;1.42;;;;;;;;;;5103168;28;20135;-64
2022/08/28 12:28:20;;;;;;;0.75;0.43;;;;;;;;;;5105079;28;20166;-65
2022/08/28 12:30:56;;;;;;;1.25;0.60;;;;;;;;;;5106595;28;20035;-63
2022/08/28 12:33:25;;;;;;;0.95;0.63;;;;;;;;;;5104059;28;20048;-63
2022/08/28 12:35:50;;;;;;;1.00;0.88;;;;;;;;;;5106543;28;20067;-63
2022/08/28 12:38:20;;;;;;;1.15;0.73;;;;;;;;;;5106109;28;20074;-62
2022/08/28 12:40:52;;;;;;;3.47;1.23;;;;;;;;;;5105253;28;20055;-63
2022/08/28 12:43:28;;;;;;;1.27;0.70;;;;;;;;;;5104970;28;20131;-62
2022/08/28 12:45:56;;;;;;;1.42;0.52;;;;;;;;;;5103253;28;20079;-63
2022/08/28 12:48:23;;;;;;;6.15;2.00;;;;;;;;;;5105528;28;20040;-63
2022/08/28 12:51:05;;;;;;;5.70;2.13;;;;;;;;;;5105926;28;20842;-62
2022/08/28 12:53:37;;;;;;;4.55;2.38;;;;;;;;;;5101632;28;20106;-63
2022/08/28 12:56:02;;;;;;;3.33;0.60;;;;;;;;;;5106356;28;20042;-63
2022/08/28 12:58:32;;;;;;;4.82;1.27;;;;;;;;;;5104293;28;20435;-63
2022/08/28 13:00:59;;;;;;;1.70;0.93;;;;;;;;;;5105755;28;20050;-64
2022/08/28 13:03:24;;;;;;;0.90;0.60;;;;;;;;;;5105737;28;20076;-63
2022/08/28 13:05:59;;;;;;;10.70;1.30;;;;;;;;;;5103040;28;20046;-64
2022/08/28 13:08:24;;;;;;;11.15;2.72;;;;;;;;;;5105847;28;20040;-63
2022/08/28 13:10:50;;;;;;;1.40;0.80;;;;;;;;;;5104941;28;20743;-63
2022/08/28 13:13:32;;;;;;;3.90;0.70;;;;;;;;;;5103697;28;20052;-65
2022/08/28 13:16:00;;;;;;;4.30;2.15;;;;;;;;;;5104331;28;20043;-63
2022/08/28 13:18:43;;;;;;;2.20;0.75;;;;;;;;;;5106463;28;20079;-62
2022/08/28 13:21:12;;;;;;;0.45;0.38;;;;;;;;;;5100422;28;20093;-63
2022/08/28 13:23:37;;;;;;;0.68;0.55;;;;;;;;;;5102734;28;20047;-64
2022/08/28 13:26:03;;;;;;;2.17;1.15;;;;;;;;;;5104341;28;20093;-64
2022/08/28 13:28:29;;;;;;;1.88;1.00;;;;;;;;;;5106383;28;20134;-63
2022/08/28 13:30:56;;;;;;;1.83;1.52;;;;;;;;;;5104153;28;20134;-63
2022/08/28 13:33:23;;;;;;;0.95;0.57;;;;;;;;;;5105613;28;20047;-64
2022/08/28 13:35:49;;;;;;;1.75;0.90;;;;;;;;;;5103568;28;20048;-63
2022/08/28 13:38:15;;;;;;;9.48;1.20;;;;;;;;;;5105064;28;20066;-63
2022/08/28 13:40:44;;;;;;;1.10;0.63;;;;;;;;;;5104737;28;20140;-63
2022/08/28 13:43:09;;;;;;;1.17;0.68;;;;;;;;;;5106198;28;20528;-63
2022/08/28 13:45:35;;;;;;;3.35;1.38;;;;;;;;;;5105262;28;20043;-62
2022/08/28 13:48:01;;;;;;;9.30;7.35;;;;;;;;;;5106422;28;20170;-65
2022/08/28 13:50:26;;;;;;;3.45;1.55;;;;;;;;;;5104367;28;20039;-63
2022/08/28 13:52:52;;;;;;;2.22;0.90;;;;;;;;;;5103953;28;20051;-63
2022/08/28 13:55:18;;;;;;;0.55;0.40;;;;;;;;;;5103932;28;20109;-62
2022/08/28 13:57:43;;;;;;;1.73;1.13;;;;;;;;;;5104515;28;20663;-62
2022/08/28 14:00:09;;;;;;;1.20;0.77;;;;;;;;;;5100746;28;20122;-62
2022/08/28 14:05:19;;;;;;;1.70;0.68;;;;;;;;;;5105113;28;20046;-63
2022/08/28 14:07:45;;;;;;;1.38;0.93;;;;;;;;;;5103448;28;20126;-63
2022/08/28 14:10:10;;;;;;;1.33;0.57;;;;;;;;;;5104785;28;20052;-63
2022/08/28 14:12:35;;;;;;;0.90;0.70;;;;;;;;;;5106046;28;20067;-62
2022/08/28 14:15:01;;;;;;;1.55;1.02;;;;;;;;;;5108580;28;20161;-62
2022/08/28 14:17:27;;;;;;;1.60;1.48;;;;;;;;;;5104593;28;20032;-62
2022/08/28 14:19:52;;;;;;;4.25;1.13;;;;;;;;;;5108855;28;20056;-62
2022/08/28 14:22:17;;;;;;;0.47;0.20;;;;;;;;;;5107239;28;20059;-63
2022/08/28 14:24:43;;;;;;;0.85;0.55;;;;;;;;;;5108094;28;20588;-63
2022/08/28 14:27:08;;;;;;;4.55;0.75;;;;;;;;;;5108605;28;21108;-62
2022/08/28 14:29:33;;;;;;;2.70;1.15;;;;;;;;;;5107852;28;20067;-63
2022/08/28 14:32:00;;;;;;;0.70;0.52;;;;;;;;;;5107493;28;20578;-62
2022/08/28 14:34:27;;;;;;;1.92;0.75;;;;;;;;;;5105403;28;20043;-62
2022/08/28 14:36:55;;;;;;;3.20;1.17;;;;;;;;;;5107856;28;20039;-62
2022/08/28 14:39:21;;;;;;;2.38;0.73;;;;;;;;;;5106912;28;20134;-62
2022/08/28 14:41:48;;;;;;;1.60;0.68;;;;;;;;;;5104601;28;20071;-62
2022/08/28 14:44:14;;;;;;;1.63;0.85;;;;;;;;;;5106299;28;20043;-62
2022/08/28 14:46:41;;;;;;;1.30;0.82;;;;;;;;;;5106212;28;20046;-63
2022/08/28 14:49:07;;;;;;;1.67;0.77;;;;;;;;;;5106380;28;20044;-62
2022/08/28 14:51:34;;;;;;;0.82;0.73;;;;;;;;;;5107120;28;20044;-62
2022/08/28 14:54:00;;;;;;;3.03;1.02;;;;;;;;;;5105969;28;20104;-63
2022/08/28 14:56:27;;;;;;;1.23;0.65;;;;;;;;;;5105616;27;20052;-62
2022/08/28 14:58:52;;;;;;;4.00;0.43;;;;;;;;;;5106432;28;20139;-62
2022/08/28 15:01:38;;;;;;;1.20;0.70;;;;;;;;;;5106080;28;20151;-63